sensor_id;sensor_type;location;lat;lon;timestamp;pressure;altitude;pressure_sealevel;temperature;humidity
64243;BME280;50573;51.512;5.386;2023-07-16T00:03:57;168849.09;;;16.29;100.00
64243;BME280;50573;51.512;5.386;2023-07-16T00:14:02;168802.56;;;16.12;100.00
64243;BME280;50573;51.512;5.386;2023-07-16T00:24:05;168783.91;;;16.05;100.00
64243;BME280;50573;51.512;5.386;2023-07-16T00:34:09;168810.53;;;16.15;100.00
64243;BME280;50573;51.512;5.386;2023-07-16T00:44:14;168831.81;;;16.23;100.00
64243;BME280;50573;51.512;5.386;2023-07-16T00:54:19;168790.59;;;16.07;100.00
64243;BME280;50573;51.512;5.386;2023-07-16T01:04:22;168766.69;;;15.98;100.00
64243;BME280;50573;51.512;5.386;2023-07-16T01:14:27;168756.03;;;15.94;100.00
64243;BME280;50573;51.512;5.386;2023-07-16T01:35:00;168765.34;;;15.98;100.00
64243;BME280;50573;51.512;5.386;2023-07-16T01:45:06;168785.25;;;16.05;100.00
64243;BME280;50573;51.512;5.386;2023-07-16T01:55:10;168778.63;;;16.03;100.00
64243;BME280;50573;51.512;5.386;2023-07-16T02:05:14;168811.88;;;16.15;100.00
64243;BME280;50573;51.512;5.386;2023-07-16T02:15:19;168827.81;;;16.21;100.00
64243;BME280;50573;51.512;5.386;2023-07-16T02:25:22;168866.38;;;16.36;100.00
64243;BME280;50573;51.512;5.386;2023-07-16T02:35:27;168873.06;;;16.38;100.00
64243;BME280;50573;51.512;5.386;2023-07-16T02:45:30;168869.09;;;16.37;100.00
64243;BME280;50573;51.512;5.386;2023-07-16T02:55:34;168851.78;;;16.30;100.00
64243;BME280;50573;51.512;5.386;2023-07-16T03:05:37;168839.78;;;16.26;100.00
64243;BME280;50573;51.512;5.386;2023-07-16T03:15:42;168817.19;;;16.17;100.00
64243;BME280;50573;51.512;5.386;2023-07-16T03:25:45;168798.56;;;16.10;100.00
64243;BME280;50573;51.512;5.386;2023-07-16T03:35:50;168760.00;;;15.96;100.00
64243;BME280;50573;51.512;5.386;2023-07-16T03:45:53;168713.47;;;15.78;100.00
64243;BME280;50573;51.512;5.386;2023-07-16T03:55:58;168662.97;;;15.59;100.00
64243;BME280;50573;51.512;5.386;2023-07-16T04:06:02;168652.31;;;15.55;100.00
64243;BME280;50573;51.512;5.386;2023-07-16T04:16:07;168665.59;;;15.60;100.00
64243;BME280;50573;51.512;5.386;2023-07-16T04:26:10;168681.53;;;15.66;100.00
64243;BME280;50573;51.512;5.386;2023-07-16T04:36:15;168676.25;;;15.64;100.00
64243;BME280;50573;51.512;5.386;2023-07-16T04:46:18;168702.81;;;15.74;100.00
64243;BME280;50573;51.512;5.386;2023-07-16T04:56:23;168718.81;;;15.80;100.00
64243;BME280;50573;51.512;5.386;2023-07-16T05:06:26;168746.69;;;15.91;100.00
64243;BME280;50573;51.512;5.386;2023-07-16T05:16:30;168791.94;;;16.08;100.00
64243;BME280;50573;51.512;5.386;2023-07-16T05:26:33;168846.44;;;16.28;100.00
64243;BME280;50573;51.512;5.386;2023-07-16T05:36:38;168898.38;;;16.48;99.69
64243;BME280;50573;51.512;5.386;2023-07-16T05:46:41;168963.56;;;16.73;97.97
64243;BME280;50573;51.512;5.386;2023-07-16T05:56:45;169044.72;;;17.03;95.33
64243;BME280;50573;51.512;5.386;2023-07-16T06:06:48;169107.25;;;17.27;93.92
64243;BME280;50573;51.512;5.386;2023-07-16T06:16:55;169171.19;;;17.51;91.54
64243;BME280;50573;51.512;5.386;2023-07-16T06:26:59;169213.81;;;17.67;89.83
64243;BME280;50573;51.512;5.386;2023-07-16T06:37:04;169256.41;;;17.83;89.02
64243;BME280;50573;51.512;5.386;2023-07-16T06:47:07;169318.97;;;18.07;86.95
64243;BME280;50573;51.512;5.386;2023-07-16T06:57:11;169394.84;;;18.35;85.54
64243;BME280;50573;51.512;5.386;2023-07-16T07:07:15;169437.50;;;18.51;83.91
64243;BME280;50573;51.512;5.386;2023-07-16T07:17:19;169540.09;;;18.90;84.24
64243;BME280;50573;51.512;5.386;2023-07-16T07:27:22;169635.97;;;19.26;84.50
64243;BME280;50573;51.512;5.386;2023-07-16T07:37:27;169751.94;;;19.70;82.23
64243;BME280;50573;51.512;5.386;2023-07-16T07:47:30;169783.97;;;19.82;80.50
64243;BME280;50573;51.512;5.386;2023-07-16T07:57:34;169861.25;;;20.11;79.20
64243;BME280;50573;51.512;5.386;2023-07-16T08:07:38;169886.63;;;20.20;77.21
64243;BME280;50573;51.512;5.386;2023-07-16T08:17:43;169946.63;;;20.43;75.71
64243;BME280;50573;51.512;5.386;2023-07-16T08:27:46;170031.94;;;20.75;73.84
64243;BME280;50573;51.512;5.386;2023-07-16T08:37:51;170165.34;;;21.25;72.12
64243;BME280;50573;51.512;5.386;2023-07-16T08:47:54;170160.06;;;21.23;71.11
64243;BME280;50573;51.512;5.386;2023-07-16T08:57:59;170101.34;;;21.01;72.94
64243;BME280;50573;51.512;5.386;2023-07-16T09:08:02;170328.19;;;21.86;69.95
64243;BME280;50573;51.512;5.386;2023-07-16T09:18:07;170301.50;;;21.76;66.95
64243;BME280;50573;51.512;5.386;2023-07-16T09:28:12;170472.28;;;22.41;66.46
64243;BME280;50573;51.512;5.386;2023-07-16T09:38:17;170512.38;;;22.56;65.28
64243;BME280;50573;51.512;5.386;2023-07-16T09:48:21;170573.81;;;22.79;65.59
64243;BME280;50573;51.512;5.386;2023-07-16T09:58:26;170647.22;;;23.06;63.42
64243;BME280;50573;51.512;5.386;2023-07-16T10:08:33;170763.44;;;23.50;63.19
64243;BME280;50573;51.512;5.386;2023-07-16T10:18:38;170731.38;;;23.38;62.13
64243;BME280;50573;51.512;5.386;2023-07-16T10:28:42;170779.44;;;23.56;61.85
64243;BME280;50573;51.512;5.386;2023-07-16T10:38:47;170917.06;;;24.08;62.63
64243;BME280;50573;51.512;5.386;2023-07-16T10:48:50;170931.78;;;24.13;59.25
64243;BME280;50573;51.512;5.386;2023-07-16T10:58:55;170918.41;;;24.08;58.53
64243;BME280;50573;51.512;5.386;2023-07-16T11:09:05;170832.88;;;23.76;61.13
64243;BME280;50573;51.512;5.386;2023-07-16T11:19:10;170758.09;;;23.48;61.60
64243;BME280;50573;51.512;5.386;2023-07-16T11:29:14;170923.75;;;24.10;61.66
64243;BME280;50573;51.512;5.386;2023-07-16T11:39:18;170925.06;;;24.11;61.73
64243;BME280;50573;51.512;5.386;2023-07-16T11:49:22;170934.44;;;24.14;60.73
64243;BME280;50573;51.512;5.386;2023-07-16T11:59:26;170728.72;;;23.37;63.46
64243;BME280;50573;51.512;5.386;2023-07-16T12:09:29;170589.81;;;22.85;73.31
64243;BME280;50573;51.512;5.386;2023-07-16T12:19:34;170775.44;;;23.55;66.69
64243;BME280;50573;51.512;5.386;2023-07-16T12:29:37;170783.44;;;23.58;65.35
64243;BME280;50573;51.512;5.386;2023-07-16T12:39:41;170783.44;;;23.58;72.99
64243;BME280;50573;51.512;5.386;2023-07-16T12:49:45;170850.25;;;23.83;68.49
64243;BME280;50573;51.512;5.386;2023-07-16T12:59:49;170955.78;;;24.22;61.92
64243;BME280;50573;51.512;5.386;2023-07-16T13:09:52;171033.28;;;24.51;61.49
64243;BME280;50573;51.512;5.386;2023-07-16T13:20:17;171192.34;;;25.11;56.43
64243;BME280;50573;51.512;5.386;2023-07-16T13:30:22;171144.28;;;24.93;57.14
64243;BME280;50573;51.512;5.386;2023-07-16T13:40:26;171192.34;;;25.11;56.82
64243;BME280;50573;51.512;5.386;2023-07-16T13:50:29;171077.44;;;24.68;55.63
64243;BME280;50573;51.512;5.386;2023-07-16T14:00:33;171062.66;;;24.62;56.93
64243;BME280;50573;51.512;5.386;2023-07-16T14:10:36;171003.91;;;24.40;57.47
64243;BME280;50573;51.512;5.386;2023-07-16T14:20:41;171050.66;;;24.58;57.20
64243;BME280;50573;51.512;5.386;2023-07-16T14:30:44;171097.47;;;24.76;58.86
64243;BME280;50573;51.512;5.386;2023-07-16T14:40:49;171053.34;;;24.59;59.84
64243;BME280;50573;51.512;5.386;2023-07-16T14:50:52;171045.28;;;24.56;56.47
64243;BME280;50573;51.512;5.386;2023-07-16T15:00:58;170884.97;;;23.96;56.24
64243;BME280;50573;51.512;5.386;2023-07-16T15:11:02;170895.69;;;24.00;57.69
64243;BME280;50573;51.512;5.386;2023-07-16T15:21:07;171027.91;;;24.49;57.38
64243;BME280;50573;51.512;5.386;2023-07-16T15:31:11;171019.91;;;24.46;56.07
64243;BME280;50573;51.512;5.386;2023-07-16T15:41:17;170875.63;;;23.92;57.80
64243;BME280;50573;51.512;5.386;2023-07-16T15:51:22;170752.72;;;23.46;60.97
64243;BME280;50573;51.512;5.386;2023-07-16T16:01:27;170929.06;;;24.12;58.96
64243;BME280;50573;51.512;5.386;2023-07-16T16:11:30;171044.00;;;24.55;55.66
64243;BME280;50573;51.512;5.386;2023-07-16T16:21:34;170997.25;;;24.38;55.51
64243;BME280;50573;51.512;5.386;2023-07-16T16:31:37;170925.06;;;24.11;56.56
64243;BME280;50573;51.512;5.386;2023-07-16T16:41:42;171025.28;;;24.48;53.90
64243;BME280;50573;51.512;5.386;2023-07-16T16:51:46;170974.50;;;24.29;51.99
64243;BME280;50573;51.512;5.386;2023-07-16T17:01:50;170950.44;;;24.20;50.92
64243;BME280;50573;51.512;5.386;2023-07-16T17:11:53;170866.25;;;23.89;52.98
64243;BME280;50573;51.512;5.386;2023-07-16T17:21:57;170899.69;;;24.01;51.48
64243;BME280;50573;51.512;5.386;2023-07-16T17:32:01;170902.41;;;24.02;50.35
64243;BME280;50573;51.512;5.386;2023-07-16T17:42:07;170890.34;;;23.98;51.14
64243;BME280;50573;51.512;5.386;2023-07-16T17:52:11;170771.44;;;23.53;52.17
64243;BME280;50573;51.512;5.386;2023-07-16T18:02:15;170718.00;;;23.33;53.64
64243;BME280;50573;51.512;5.386;2023-07-16T18:12:18;170691.25;;;23.23;54.81
64243;BME280;50573;51.512;5.386;2023-07-16T18:22:23;170632.53;;;23.01;54.68
64243;BME280;50573;51.512;5.386;2023-07-16T18:32:32;170556.44;;;22.72;55.73
64243;BME280;50573;51.512;5.386;2023-07-16T18:42:37;170500.34;;;22.51;57.56
64243;BME280;50573;51.512;5.386;2023-07-16T18:52:40;170408.22;;;22.17;58.99
64243;BME280;50573;51.512;5.386;2023-07-16T19:02:44;170346.84;;;21.93;60.78
64243;BME280;50573;51.512;5.386;2023-07-16T19:12:47;170304.16;;;21.77;62.77
64243;BME280;50573;51.512;5.386;2023-07-16T19:22:52;170225.44;;;21.48;65.57
64243;BME280;50573;51.512;5.386;2023-07-16T19:32:55;170189.41;;;21.34;67.53
64243;BME280;50573;51.512;5.386;2023-07-16T19:43:00;170138.72;;;21.15;68.83
64243;BME280;50573;51.512;5.386;2023-07-16T19:53:03;170018.66;;;20.70;75.11
64243;BME280;50573;51.512;5.386;2023-07-16T20:03:07;169965.31;;;20.50;74.11
64243;BME280;50573;51.512;5.386;2023-07-16T20:13:12;169911.97;;;20.30;78.93
64243;BME280;50573;51.512;5.386;2023-07-16T20:23:17;169851.91;;;20.07;82.44
64243;BME280;50573;51.512;5.386;2023-07-16T20:33:20;169787.97;;;19.83;85.37
64243;BME280;50573;51.512;5.386;2023-07-16T20:43:24;169760.00;;;19.73;85.49
64243;BME280;50573;51.512;5.386;2023-07-16T20:53:27;169738.69;;;19.65;86.40
64243;BME280;50573;51.512;5.386;2023-07-16T21:03:32;169701.31;;;19.51;86.36
64243;BME280;50573;51.512;5.386;2023-07-16T21:13:36;169649.34;;;19.31;88.83
64243;BME280;50573;51.512;5.386;2023-07-16T21:23:40;169590.72;;;19.09;89.50
64243;BME280;50573;51.512;5.386;2023-07-16T21:33:43;169520.09;;;18.82;92.20
64243;BME280;50573;51.512;5.386;2023-07-16T21:43:47;169473.47;;;18.65;94.23
64243;BME280;50573;51.512;5.386;2023-07-16T21:53:50;169421.53;;;18.45;97.64
64243;BME280;50573;51.512;5.386;2023-07-16T22:03:54;169414.91;;;18.43;98.09
64243;BME280;50573;51.512;5.386;2023-07-16T22:13:57;169416.19;;;18.43;98.88
64243;BME280;50573;51.512;5.386;2023-07-16T22:24:04;169417.53;;;18.44;100.00
64243;BME280;50573;51.512;5.386;2023-07-16T22:34:07;169434.84;;;18.50;100.00
64243;BME280;50573;51.512;5.386;2023-07-16T22:44:12;169432.22;;;18.49;100.00
64243;BME280;50573;51.512;5.386;2023-07-16T22:54:15;169297.66;;;17.98;100.00
64243;BME280;50573;51.512;5.386;2023-07-16T23:04:19;169197.81;;;17.61;100.00
64243;BME280;50573;51.512;5.386;2023-07-16T23:14:22;169164.53;;;17.48;100.00
64243;BME280;50573;51.512;5.386;2023-07-16T23:24:26;169123.25;;;17.33;100.00
64243;BME280;50573;51.512;5.386;2023-07-16T23:34:29;169109.94;;;17.28;100.00
64243;BME280;50573;51.512;5.386;2023-07-16T23:44:34;169031.41;;;16.98;100.00
64243;BME280;50573;51.512;5.386;2023-07-16T23:54:37;168972.91;;;16.76;100.00
